Time;durP1;ratioP1;P1;durP2;ratioP2;P2;SDS_P1;SDS_P2;PMS_P1;PMS_P2;Temp;Humidity;BMP_temperature;BMP_pressure;BME280_temperature;BME280_humidity;BME280_pressure;Samples;Min_cycle;Max_cycle;Signal;HPM_P1;HPM_P2
2022/08/31 00:06:17;;;;;;;3.13;2.08;;;18.00;68.40;;;;;;4988221;28;20088;-83
2022/08/31 00:08:43;;;;;;;5.47;2.30;;;18.00;69.00;;;;;;4971789;28;20121;-83
2022/08/31 00:11:12;;;;;;;2.67;1.95;;;17.90;68.30;;;;;;4971557;28;20457;-83
2022/08/31 00:13:38;;;;;;;4.63;1.77;;;17.80;69.30;;;;;;4979538;28;20030;-83
2022/08/31 00:16:04;;;;;;;3.83;1.63;;;17.80;69.90;;;;;;4966371;28;20041;-82
2022/08/31 00:18:30;;;;;;;8.70;2.40;;;17.80;71.30;;;;;;4969729;28;20573;-83
2022/08/31 00:20:55;;;;;;;3.40;1.80;;;17.90;69.50;;;;;;4981996;28;20039;-81
2022/08/31 00:23:21;;;;;;;2.28;1.52;;;17.80;70.20;;;;;;4963081;28;20118;-84
2022/08/31 00:25:47;;;;;;;5.22;1.90;;;17.80;72.20;;;;;;4970558;28;20045;-83
2022/08/31 00:28:13;;;;;;;4.25;2.13;;;17.70;70.70;;;;;;4966948;28;20047;-83
2022/08/31 00:30:39;;;;;;;1.98;1.77;;;17.80;70.70;;;;;;4979393;28;20422;-83
2022/08/31 00:33:05;;;;;;;2.92;2.20;;;17.60;72.10;;;;;;4955226;28;20042;-83
2022/08/31 00:35:32;;;;;;;2.67;2.08;;;17.60;72.40;;;;;;4964146;28;20048;-82
2022/08/31 00:37:57;;;;;;;6.40;2.85;;;17.50;72.80;;;;;;4957452;28;20034;-84
2022/08/31 00:40:23;;;;;;;4.30;2.33;;;17.60;72.90;;;;;;4970332;28;20029;-83
2022/08/31 00:42:49;;;;;;;3.90;2.25;;;17.70;72.80;;;;;;4969167;28;20088;-83
2022/08/31 00:45:15;;;;;;;2.90;1.98;;;17.70;72.70;;;;;;4970641;28;20053;-83
2022/08/31 00:47:40;;;;;;;6.80;2.20;;;17.70;72.70;;;;;;4978363;28;20483;-83
2022/08/31 00:50:08;;;;;;;7.00;2.85;;;17.70;73.50;;;;;;4982585;28;20056;-83
2022/08/31 00:52:36;;;;;;;4.65;3.22;;;17.80;71.50;;;;;;4948790;28;20042;-82
2022/08/31 00:55:12;;;;;;;6.22;3.20;;;17.80;71.90;;;;;;4976667;28;20079;-84
2022/08/31 00:57:39;;;;;;;9.40;3.53;;;17.60;73.20;;;;;;4983347;28;20069;-82
2022/08/31 01:00:08;;;;;;;8.52;3.00;;;17.60;73.70;;;;;;4971704;28;20076;-81
2022/08/31 01:02:33;;;;;;;4.82;3.10;;;17.60;74.20;;;;;;4952600;28;20026;-83
2022/08/31 01:04:59;;;;;;;5.63;2.90;;;17.60;73.70;;;;;;4970720;28;20048;-84
2022/08/31 01:07:25;;;;;;;5.00;2.92;;;17.60;75.10;;;;;;4952118;28;20030;-81
2022/08/31 01:09:50;;;;;;;3.58;2.40;;;17.60;74.70;;;;;;4958019;28;20050;-83
2022/08/31 01:12:16;;;;;;;7.28;2.28;;;17.60;74.60;;;;;;4972332;28;20378;-83
2022/08/31 01:14:41;;;;;;;5.00;2.78;;;17.60;75.30;;;;;;4967974;28;20431;-83
2022/08/31 01:17:07;;;;;;;4.47;2.20;;;17.60;74.90;;;;;;4956698;28;20057;-83
2022/08/31 01:19:53;;;;;;;4.47;2.13;;;17.60;75.80;;;;;;4976876;28;20041;-83
2022/08/31 01:22:21;;;;;;;4.80;1.85;;;17.60;75.50;;;;;;4970298;28;20037;-84
2022/08/31 01:24:47;;;;;;;7.80;2.00;;;17.50;76.60;;;;;;4987137;28;20030;-83
2022/08/31 01:27:13;;;;;;;5.63;1.70;;;17.40;77.20;;;;;;4969129;28;20034;-82
2022/08/31 01:29:39;;;;;;;5.60;1.95;;;17.50;77.20;;;;;;4964710;28;20628;-83
2022/08/31 01:32:05;;;;;;;3.03;1.90;;;17.60;76.20;;;;;;4972877;28;20054;-84
2022/08/31 01:34:31;;;;;;;3.28;1.85;;;17.50;76.70;;;;;;4967985;28;20489;-83
2022/08/31 01:36:57;;;;;;;3.13;1.70;;;17.50;77.00;;;;;;4972883;28;20054;-83
2022/08/31 01:39:23;;;;;;;2.58;2.05;;;17.50;78.20;;;;;;4966099;28;20509;-83
2022/08/31 01:41:48;;;;;;;3.45;1.60;;;17.40;77.60;;;;;;4965235;28;20057;-83
2022/08/31 01:44:16;;;;;;;2.72;1.40;;;17.50;77.20;;;;;;4980593;28;20117;-83
2022/08/31 01:46:41;;;;;;;3.97;1.67;;;17.60;77.40;;;;;;4970170;28;20407;-83
2022/08/31 01:49:07;;;;;;;5.65;1.83;;;17.50;77.60;;;;;;4952863;28;20042;-83
2022/08/31 01:51:33;;;;;;;5.78;1.50;;;17.50;78.60;;;;;;4967558;28;20058;-81
2022/08/31 01:53:59;;;;;;;2.80;1.25;;;17.40;78.70;;;;;;4981484;28;20045;-84
2022/08/31 01:56:27;;;;;;;2.25;1.67;;;17.40;78.70;;;;;;4976109;28;20054;-83
2022/08/31 01:58:53;;;;;;;2.50;1.80;;;17.40;78.50;;;;;;4964242;28;20050;-83
2022/08/31 02:01:19;;;;;;;3.55;1.30;;;17.40;79.00;;;;;;4946157;28;20085;-84
2022/08/31 02:03:44;;;;;;;2.53;1.63;;;17.30;79.30;;;;;;4979239;28;20038;-83
2022/08/31 02:06:11;;;;;;;1.98;1.38;;;17.40;78.50;;;;;;4976911;28;20050;-82
2022/08/31 02:08:36;;;;;;;2.83;1.45;;;17.30;79.80;;;;;;4980153;28;20113;-83
2022/08/31 02:11:03;;;;;;;3.33;1.20;;;17.30;79.00;;;;;;4978278;28;20496;-83
2022/08/31 02:13:29;;;;;;;2.30;1.42;;;17.30;79.30;;;;;;4976890;28;20031;-83
2022/08/31 02:15:54;;;;;;;2.03;1.30;;;17.20;79.80;;;;;;4958442;28;20037;-83
2022/08/31 02:18:20;;;;;;;2.15;1.45;;;17.10;79.30;;;;;;4955280;28;20037;-83
2022/08/31 02:20:46;;;;;;;3.60;1.48;;;17.10;79.20;;;;;;4984170;28;20105;-83
2022/08/31 02:23:11;;;;;;;4.60;1.40;;;17.10;80.10;;;;;;4946929;28;20037;-83
2022/08/31 02:25:37;;;;;;;5.25;1.50;;;17.10;80.30;;;;;;4966036;28;20117;-83
2022/08/31 02:28:02;;;;;;;1.30;1.20;;;17.00;81.10;;;;;;4980673;28;20034;-82
2022/08/31 02:30:28;;;;;;;3.45;1.45;;;17.00;80.60;;;;;;4983029;28;20114;-82
2022/08/31 02:32:54;;;;;;;1.42;1.17;;;16.90;79.40;;;;;;4970457;28;20038;-83
2022/08/31 02:35:19;;;;;;;3.00;1.48;;;16.90;80.50;;;;;;4952505;28;20705;-83
2022/08/31 02:37:45;;;;;;;1.48;1.20;;;16.80;80.70;;;;;;4968397;28;20025;-83
2022/08/31 02:40:11;;;;;;;2.63;1.40;;;16.80;80.70;;;;;;4981538;28;20033;-83
2022/08/31 02:42:36;;;;;;;1.92;1.13;;;16.80;81.60;;;;;;4969104;28;20065;-83
2022/08/31 02:45:04;;;;;;;2.70;1.20;;;16.70;80.80;;;;;;4980979;28;20068;-83
2022/08/31 02:47:30;;;;;;;1.30;1.20;;;16.70;81.80;;;;;;4969470;28;20022;-82
2022/08/31 02:49:56;;;;;;;2.50;1.30;;;16.60;81.20;;;;;;4974676;28;20069;-83
2022/08/31 02:52:21;;;;;;;2.25;1.00;;;16.60;81.30;;;;;;4963352;28;20058;-83
2022/08/31 02:54:47;;;;;;;2.88;1.25;;;16.50;81.90;;;;;;4983315;28;20470;-83
2022/08/31 02:57:12;;;;;;;3.47;1.27;;;16.40;81.70;;;;;;4952589;28;20061;-82
2022/08/31 02:59:38;;;;;;;1.40;1.30;;;16.50;82.00;;;;;;4981293;28;20038;-83
2022/08/31 03:02:04;;;;;;;1.30;1.10;;;16.40;82.50;;;;;;4957770;28;20121;-83
2022/08/31 03:04:29;;;;;;;1.80;1.38;;;16.40;83.40;;;;;;4981339;28;20042;-82
2022/08/31 03:06:55;;;;;;;1.65;1.10;;;16.30;86.10;;;;;;4971468;28;20045;-83
2022/08/31 03:09:20;;;;;;;2.42;1.13;;;16.40;84.90;;;;;;4985644;28;20026;-82
2022/08/31 03:11:46;;;;;;;3.45;1.10;;;16.30;84.50;;;;;;4971291;28;20108;-83
2022/08/31 03:14:12;;;;;;;3.45;1.50;;;16.40;85.10;;;;;;4959212;28;20077;-82
2022/08/31 03:16:39;;;;;;;4.15;1.50;;;16.40;85.10;;;;;;4971522;28;20084;-82
2022/08/31 03:19:05;;;;;;;2.47;1.48;;;16.40;86.10;;;;;;4951303;28;20030;-83
2022/08/31 03:21:31;;;;;;;1.45;1.27;;;16.30;84.20;;;;;;4982611;28;20105;-83
2022/08/31 03:23:57;;;;;;;2.05;1.17;;;16.30;84.40;;;;;;4981229;28;20038;-82
2022/08/31 03:26:22;;;;;;;5.00;1.33;;;16.30;86.70;;;;;;4952730;28;20061;-82
2022/08/31 03:28:48;;;;;;;3.00;1.33;;;16.30;85.70;;;;;;4956304;28;20034;-83
2022/08/31 03:31:14;;;;;;;1.70;1.58;;;16.20;88.20;;;;;;4979176;28;20037;-82
2022/08/31 03:33:39;;;;;;;2.15;1.30;;;16.20;87.50;;;;;;4957994;28;20085;-83
2022/08/31 03:36:06;;;;;;;2.78;1.02;;;16.20;87.80;;;;;;4985646;28;20061;-82
2022/08/31 03:38:31;;;;;;;3.42;1.63;;;16.10;86.30;;;;;;4968094;28;20400;-85
2022/08/31 03:40:57;;;;;;;3.83;1.20;;;16.10;86.80;;;;;;4968071;28;20040;-82
2022/08/31 03:43:23;;;;;;;2.65;1.13;;;16.10;86.90;;;;;;4970086;28;20034;-82
2022/08/31 03:45:48;;;;;;;2.75;1.42;;;16.10;87.30;;;;;;4956991;28;20030;-82
2022/08/31 03:48:14;;;;;;;1.35;1.10;;;16.00;87.90;;;;;;4973659;28;20040;-82
2022/08/31 03:50:40;;;;;;;1.65;1.20;;;15.90;89.20;;;;;;4969926;28;20549;-83
2022/08/31 03:53:06;;;;;;;2.72;1.50;;;15.90;89.60;;;;;;4957542;28;20069;-83
2022/08/31 03:55:33;;;;;;;3.45;1.13;;;15.90;90.30;;;;;;4970020;28;20473;-86
2022/08/31 03:57:58;;;;;;;2.38;1.30;;;15.90;90.40;;;;;;4986215;28;20402;-83
2022/08/31 04:00:24;;;;;;;3.28;1.48;;;15.80;90.30;;;;;;4951252;28;20030;-83
2022/08/31 04:02:49;;;;;;;2.13;1.42;;;15.80;91.30;;;;;;4966308;28;20041;-83
2022/08/31 04:05:16;;;;;;;2.97;1.30;;;15.80;91.40;;;;;;4948408;28;20041;-82
2022/08/31 04:07:42;;;;;;;4.38;1.58;;;15.80;91.40;;;;;;4965905;28;20479;-84
2022/08/31 04:10:08;;;;;;;3.10;1.58;;;15.70;91.50;;;;;;4967145;28;20022;-83
2022/08/31 04:12:34;;;;;;;5.07;1.40;;;15.70;93.20;;;;;;4977661;28;20026;-83
2022/08/31 04:15:00;;;;;;;4.68;1.42;;;15.70;92.60;;;;;;4968957;28;20071;-84
2022/08/31 04:17:26;;;;;;;2.63;1.60;;;15.80;93.80;;;;;;4966161;28;20030;-83
2022/08/31 04:19:51;;;;;;;2.25;1.55;;;15.70;92.40;;;;;;4980956;28;20042;-83
2022/08/31 04:22:17;;;;;;;3.47;1.35;;;15.70;92.40;;;;;;4965251;28;20035;-82
2022/08/31 04:24:43;;;;;;;1.90;1.70;;;15.60;92.70;;;;;;4974130;28;20025;-83
2022/08/31 04:27:08;;;;;;;4.35;1.50;;;15.50;93.00;;;;;;4973869;28;20042;-83
2022/08/31 04:29:34;;;;;;;5.07;1.33;;;15.60;92.60;;;;;;4974446;28;20108;-83
2022/08/31 04:31:59;;;;;;;3.60;1.27;;;15.50;92.90;;;;;;4998228;28;20128;-83
2022/08/31 04:34:25;;;;;;;3.70;1.45;;;15.50;93.00;;;;;;4983467;28;20039;-82
2022/08/31 04:36:50;;;;;;;1.83;1.40;;;15.50;93.60;;;;;;4968615;28;20027;-83
2022/08/31 04:39:16;;;;;;;1.50;1.35;;;15.50;96.00;;;;;;4973009;28;20044;-82
2022/08/31 04:41:41;;;;;;;6.88;1.90;;;15.40;94.10;;;;;;4978441;28;20030;-82
2022/08/31 04:44:07;;;;;;;6.72;1.70;;;15.40;95.40;;;;;;4978659;28;20398;-83
2022/08/31 04:46:35;;;;;;;2.85;1.35;;;15.40;93.80;;;;;;4980520;28;20053;-83
2022/08/31 04:49:00;;;;;;;3.92;1.50;;;15.30;94.50;;;;;;4981975;28;20077;-82
2022/08/31 04:51:28;;;;;;;3.28;1.50;;;15.30;94.60;;;;;;4952779;28;20070;-83
2022/08/31 04:53:53;;;;;;;2.85;1.77;;;15.40;94.00;;;;;;4964898;28;20037;-83
2022/08/31 04:56:21;;;;;;;2.85;1.35;;;15.30;96.40;;;;;;4978954;28;20438;-82
2022/08/31 04:58:49;;;;;;;2.00;1.80;;;15.30;95.60;;;;;;4984180;28;20030;-83
2022/08/31 05:01:16;;;;;;;2.53;1.60;;;15.30;95.30;;;;;;4978989;28;20029;-82
2022/08/31 05:03:42;;;;;;;3.05;1.77;;;15.30;96.20;;;;;;4971604;28;20117;-82
2022/08/31 05:06:12;;;;;;;2.60;1.45;;;15.40;95.70;;;;;;4968726;28;20485;-83
2022/08/31 05:08:37;;;;;;;3.92;2.08;;;15.30;96.30;;;;;;4971361;28;20054;-82
2022/08/31 05:11:14;;;;;;;11.63;3.25;;;15.20;95.30;;;;;;4964274;28;20034;-83
2022/08/31 05:13:40;;;;;;;2.20;1.90;;;15.20;95.50;;;;;;4979317;28;20160;-81
2022/08/31 05:16:07;;;;;;;4.68;1.88;;;15.20;96.20;;;;;;4968518;28;20073;-83
2022/08/31 05:18:33;;;;;;;5.30;2.00;;;15.20;96.60;;;;;;4971639;28;20050;-83
2022/08/31 05:21:10;;;;;;;4.07;1.75;;;15.20;96.30;;;;;;4969499;28;20041;-83
2022/08/31 05:23:36;;;;;;;5.25;2.00;;;15.20;95.80;;;;;;4991670;28;20097;-83
2022/08/31 05:26:02;;;;;;;3.38;1.88;;;15.20;96.40;;;;;;4969810;28;20033;-83
2022/08/31 05:28:28;;;;;;;5.88;1.92;;;15.20;96.10;;;;;;4960344;28;20485;-82
2022/08/31 05:30:53;;;;;;;3.08;2.10;;;15.20;95.70;;;;;;4979392;28;20098;-83
2022/08/31 05:33:19;;;;;;;6.45;2.95;;;15.20;96.70;;;;;;4967605;28;20034;-83
2022/08/31 05:35:46;;;;;;;5.03;2.03;;;15.20;96.30;;;;;;4954441;28;20054;-83
2022/08/31 05:38:12;;;;;;;6.47;2.50;;;15.20;96.90;;;;;;4963287;28;24670;-83
2022/08/31 05:40:38;;;;;;;4.25;2.05;;;15.30;96.40;;;;;;4968592;28;20383;-83
2022/08/31 05:43:03;;;;;;;6.45;2.00;;;15.20;96.40;;;;;;4962065;28;20056;-83
2022/08/31 05:45:29;;;;;;;4.82;2.70;;;15.30;96.60;;;;;;4965873;28;20034;-83
2022/08/31 05:47:54;;;;;;;3.08;1.88;;;15.30;95.90;;;;;;4982367;28;20048;-82
2022/08/31 05:50:20;;;;;;;3.97;2.25;;;15.40;96.90;;;;;;4964455;28;20038;-83
2022/08/31 05:52:46;;;;;;;5.25;2.13;;;15.40;96.60;;;;;;4983929;28;20030;-81
2022/08/31 05:55:11;;;;;;;6.10;2.03;;;15.40;96.70;;;;;;4953598;28;20057;-84
2022/08/31 05:57:39;;;;;;;4.47;2.22;;;15.50;96.60;;;;;;4968916;28;20053;-83
2022/08/31 06:00:06;;;;;;;8.02;2.03;;;15.50;97.20;;;;;;4976693;28;20022;-82
2022/08/31 06:02:32;;;;;;;6.30;1.65;;;15.70;96.20;;;;;;4969265;28;20139;-83
2022/08/31 06:04:58;;;;;;;4.25;1.90;;;15.80;96.20;;;;;;4968089;28;20034;-84
2022/08/31 06:07:24;;;;;;;7.07;2.30;;;15.80;96.40;;;;;;4983175;28;20034;-83
2022/08/31 06:09:50;;;;;;;4.55;2.42;;;15.80;96.70;;;;;;4975236;28;20037;-84
2022/08/31 06:12:17;;;;;;;3.50;2.13;;;15.90;96.50;;;;;;4957397;28;20335;-82
2022/08/31 06:14:44;;;;;;;6.18;2.10;;;15.90;96.20;;;;;;4953277;28;20530;-83
2022/08/31 06:17:09;;;;;;;7.22;3.53;;;16.00;96.10;;;;;;4955066;28;20085;-83
2022/08/31 06:19:36;;;;;;;2.88;2.28;;;16.10;96.30;;;;;;4964241;28;20038;-81
2022/08/31 06:22:01;;;;;;;4.80;2.53;;;16.20;96.10;;;;;;4970819;28;20073;-83
2022/08/31 06:24:27;;;;;;;11.18;3.85;;;16.30;96.20;;;;;;4982152;28;20581;-82
2022/08/31 06:26:55;;;;;;;5.05;1.90;;;16.30;96.20;;;;;;4983902;28;20493;-83
2022/08/31 06:29:21;;;;;;;2.95;1.85;;;16.40;96.00;;;;;;4972668;28;20487;-83
2022/08/31 06:31:46;;;;;;;6.60;2.33;;;16.50;96.30;;;;;;4983877;28;20060;-83
2022/08/31 06:34:14;;;;;;;6.05;2.00;;;16.60;95.90;;;;;;4974507;28;20042;-83
2022/08/31 06:36:39;;;;;;;4.25;1.75;;;16.80;96.10;;;;;;4980909;28;20100;-81
2022/08/31 06:39:05;;;;;;;5.97;2.15;;;17.00;96.40;;;;;;4958300;28;20038;-82
2022/08/31 06:41:32;;;;;;;3.47;1.80;;;17.20;96.30;;;;;;4989439;28;20057;-82
2022/08/31 06:43:59;;;;;;;3.90;2.05;;;17.30;95.70;;;;;;4970594;28;20482;-82
2022/08/31 06:46:25;;;;;;;4.65;2.10;;;17.50;95.70;;;;;;4987838;28;20579;-83
2022/08/31 06:48:54;;;;;;;2.28;1.60;;;17.60;95.40;;;;;;4982126;28;20049;-83
2022/08/31 06:51:20;;;;;;;3.40;2.10;;;17.80;95.20;;;;;;4972684;28;20030;-83
2022/08/31 06:53:45;;;;;;;4.93;1.98;;;18.00;95.30;;;;;;4968027;28;20478;-83
2022/08/31 06:56:13;;;;;;;6.32;2.13;;;18.10;95.00;;;;;;4964370;28;20038;-83
2022/08/31 06:58:39;;;;;;;3.38;1.98;;;18.20;94.90;;;;;;4982038;28;20030;-82
2022/08/31 07:01:10;;;;;;;5.45;2.05;;;18.30;94.70;;;;;;4974730;28;20122;-83
2022/08/31 07:03:36;;;;;;;2.97;1.92;;;18.40;94.60;;;;;;4966455;28;20042;-83
2022/08/31 07:06:10;;;;;;;7.30;1.98;;;18.60;94.50;;;;;;4958470;28;20088;-83
2022/08/31 07:08:36;;;;;;;3.72;2.30;;;18.70;94.30;;;;;;4958753;28;20038;-83
2022/08/31 07:11:02;;;;;;;9.32;2.05;;;18.80;94.20;;;;;;4969833;28;20040;-83
2022/08/31 07:13:28;;;;;;;4.45;1.85;;;19.00;93.90;;;;;;4987329;28;20042;-83
2022/08/31 07:16:10;;;;;;;3.85;2.17;;;19.20;93.60;;;;;;4986243;28;20038;-83
2022/08/31 07:18:36;;;;;;;4.05;2.00;;;19.30;93.20;;;;;;4982356;28;20055;-83
2022/08/31 07:21:08;;;;;;;3.83;2.22;;;19.50;93.30;;;;;;4982626;28;20030;-83
2022/08/31 07:23:34;;;;;;;9.38;1.77;;;19.70;93.20;;;;;;4965044;28;20049;-82
2022/08/31 07:26:04;;;;;;;10.23;2.15;;;19.80;92.90;;;;;;4986267;28;20061;-83
2022/08/31 07:28:30;;;;;;;4.55;2.03;;;19.90;92.50;;;;;;4985196;28;20058;-83
2022/08/31 07:30:55;;;;;;;3.15;1.90;;;20.10;92.30;;;;;;4984833;28;20497;-84
2022/08/31 07:33:21;;;;;;;3.72;1.58;;;20.20;92.10;;;;;;4949279;28;20057;-84
2022/08/31 07:35:46;;;;;;;3.40;1.67;;;20.20;91.80;;;;;;4957219;28;20054;-84
2022/08/31 07:43:40;;;;;;;6.47;2.30;;;20.40;91.40;;;;;;4990936;28;20033;-83
2022/08/31 07:46:06;;;;;;;8.15;2.17;;;20.40;91.50;;;;;;4955594;28;20042;-83
2022/08/31 07:48:31;;;;;;;6.63;2.45;;;20.50;91.10;;;;;;4980849;28;20038;-82
2022/08/31 07:50:57;;;;;;;5.88;2.10;;;20.50;90.60;;;;;;4967756;28;20031;-84
2022/08/31 07:53:23;;;;;;;5.00;2.17;;;20.60;91.20;;;;;;4979384;28;20038;-84
2022/08/31 07:55:57;;;;;;;5.70;2.30;;;20.70;90.40;;;;;;4967668;28;20100;-83
2022/08/31 07:58:22;;;;;;;3.97;2.50;;;20.70;90.20;;;;;;4971882;28;20069;-83
2022/08/31 08:00:48;;;;;;;6.70;2.15;;;20.80;90.20;;;;;;4955250;28;20054;-83
2022/08/31 08:03:14;;;;;;;6.65;2.60;;;20.90;90.00;;;;;;4998896;28;20112;-83
2022/08/31 08:05:40;;;;;;;2.88;1.92;;;21.00;89.70;;;;;;4966959;28;20096;-83
2022/08/31 08:08:07;;;;;;;3.25;2.33;;;21.00;88.80;;;;;;4966241;28;20022;-83
2022/08/31 08:10:33;;;;;;;3.85;1.95;;;21.00;89.40;;;;;;4980561;28;20030;-83
2022/08/31 08:13:02;;;;;;;7.25;1.88;;;21.10;89.10;;;;;;4980760;28;20053;-84
2022/08/31 08:15:28;;;;;;;5.43;1.90;;;21.20;88.40;;;;;;4963772;28;20037;-82
2022/08/31 08:17:54;;;;;;;7.55;2.05;;;21.30;88.90;;;;;;4973532;28;20036;-84
2022/08/31 08:20:19;;;;;;;8.98;2.17;;;21.40;88.50;;;;;;4963957;28;20022;-84
2022/08/31 08:22:45;;;;;;;8.07;2.38;;;21.50;88.40;;;;;;4980988;28;20034;-84
2022/08/31 08:25:11;;;;;;;5.72;2.35;;;21.40;87.50;;;;;;4970082;28;20031;-84
2022/08/31 08:27:36;;;;;;;11.38;2.63;;;21.60;87.70;;;;;;4970677;28;20149;-84
2022/08/31 08:30:07;;;;;;;13.52;3.10;;;21.70;87.70;;;;;;4971026;28;20393;-84
2022/08/31 08:32:33;;;;;;;8.70;2.60;;;21.80;87.00;;;;;;4966644;28;20030;-84
2022/08/31 08:34:58;;;;;;;7.25;2.40;;;21.80;86.80;;;;;;4982744;28;20044;-85
2022/08/31 08:37:26;;;;;;;5.13;2.30;;;21.80;85.90;;;;;;4967024;28;20027;-85
2022/08/31 08:39:52;;;;;;;8.77;2.75;;;21.80;86.20;;;;;;4981358;28;20122;-84
2022/08/31 08:42:18;;;;;;;5.75;2.10;;;21.90;85.80;;;;;;4965120;28;20121;-85
2022/08/31 08:44:43;;;;;;;4.03;2.13;;;21.90;85.60;;;;;;4970869;28;20032;-85
2022/08/31 08:47:14;;;;;;;4.38;2.10;;;22.00;85.50;;;;;;4970228;28;20038;-84
2022/08/31 08:49:48;;;;;;;4.13;2.20;;;22.10;85.30;;;;;;4962921;28;20042;-83
2022/08/31 08:52:29;;;;;;;3.05;1.92;;;22.10;85.30;;;;;;4982986;28;20489;-84
2022/08/31 08:55:00;;;;;;;5.30;2.00;;;22.20;84.90;;;;;;4984370;28;20057;-82
2022/08/31 08:57:30;;;;;;;7.63;2.38;;;22.20;84.70;;;;;;4980759;28;20037;-84
2022/08/31 08:59:57;;;;;;;4.25;2.50;;;22.30;84.10;;;;;;4980949;28;20042;-84
2022/08/31 09:02:57;;;;;;;9.30;2.63;;;22.40;83.80;;;;;;4979317;28;20038;-84
2022/08/31 09:05:47;;;;;;;6.38;2.58;;;22.50;83.70;;;;;;4973995;28;20026;-82
2022/08/31 09:08:35;;;;;;;11.77;2.70;;;22.60;83.10;;;;;;4976069;28;20042;-84
2022/08/31 09:11:22;;;;;;;5.50;2.45;;;22.70;82.20;;;;;;4969900;28;20037;-86
2022/08/31 09:13:55;;;;;;;10.90;4.05;;;22.70;82.20;;;;;;4992327;28;20050;-85
2022/08/31 09:16:27;;;;;;;9.52;4.82;;;22.90;83.10;;;;;;4981947;28;20022;-85
2022/08/31 09:19:07;;;;;;;5.28;3.35;;;22.90;82.10;;;;;;4979270;28;20026;-84
2022/08/31 09:21:38;;;;;;;8.85;3.60;;;23.00;81.10;;;;;;4968386;28;20030;-84
2022/08/31 09:24:12;;;;;;;4.72;2.95;;;23.00;80.70;;;;;;4954297;28;20029;-84
2022/08/31 09:26:59;;;;;;;6.85;2.65;;;23.00;80.60;;;;;;4970604;28;20034;-85
2022/08/31 09:29:26;;;;;;;;;;;23.30;81.00;;;;;;4970801;28;20034;-84
2022/08/31 09:32:15;;;;;;;4.70;2.05;;;23.40;80.90;;;;;;4968047;28;20329;-87
2022/08/31 09:34:40;;;;;;;6.57;2.45;;;23.60;80.10;;;;;;4974132;28;20405;-83
2022/08/31 09:37:21;;;;;;;6.38;2.70;;;23.70;79.80;;;;;;4983617;28;20034;-84
2022/08/31 09:39:48;;;;;;;5.30;2.70;;;23.80;79.70;;;;;;4970144;28;20537;-84
2022/08/31 09:42:29;;;;;;;11.98;2.67;;;23.90;78.60;;;;;;4958040;28;20031;-85
2022/08/31 09:45:03;;;;;;;6.47;2.90;;;24.10;78.00;;;;;;4984145;28;20057;-84
2022/08/31 09:47:51;;;;;;;2.97;2.63;;;24.20;78.90;;;;;;4974096;28;20099;-85
2022/08/31 09:50:39;;;;;;;6.13;2.67;;;24.30;78.30;;;;;;4955329;28;20128;-84
2022/08/31 09:56:14;;;;;;;10.85;4.10;;;24.20;77.20;;;;;;4985295;28;20034;-85
2022/08/31 09:58:49;;;;;;;7.25;2.92;;;24.20;77.50;;;;;;4981777;28;20023;-85
2022/08/31 10:01:19;;;;;;;4.90;3.10;;;24.30;77.10;;;;;;4974194;28;20034;-85
2022/08/31 10:03:46;;;;;;;6.13;2.50;;;24.40;76.40;;;;;;4976020;28;20037;-86
2022/08/31 10:06:25;;;;;;;6.50;2.33;;;24.40;76.30;;;;;;4967998;28;20077;-84
2022/08/31 10:08:56;;;;;;;9.70;3.03;;;24.50;76.30;;;;;;4970463;28;20041;-85
2022/08/31 10:11:23;;;;;;;7.20;2.50;;;24.60;75.70;;;;;;4984542;28;20041;-85
2022/08/31 10:14:03;;;;;;;6.15;2.92;;;24.70;76.60;;;;;;4970468;28;20453;-86
2022/08/31 10:16:35;;;;;;;6.22;3.15;;;24.80;75.90;;;;;;4970737;28;20058;-85
2022/08/31 10:19:13;;;;;;;4.57;2.97;;;24.90;75.90;;;;;;4968787;28;20053;-87
2022/08/31 10:22:21;;;;;;;13.40;3.92;;;25.10;75.40;;;;;;4970434;28;20169;-86
2022/08/31 10:24:50;;;;;;;12.27;3.00;;;25.40;75.50;;;;;;4912709;29;20040;-86
2022/08/31 10:27:24;;;;;;;6.82;2.70;;;25.50;75.10;;;;;;4283679;28;9999661;-85
2022/08/31 10:29:53;;;;;;;6.07;2.60;;;25.70;75.30;;;;;;4973697;28;20056;-86
2022/08/31 10:33:06;;;;;;;6.57;3.28;;;25.80;74.40;;;;;;4964963;28;20034;-86
2022/08/31 10:35:43;;;;;;;4.63;3.53;;;26.00;74.60;;;;;;4933891;28;20487;-86
2022/08/31 10:38:25;;;;;;;7.43;2.90;;;26.10;73.10;;;;;;4965665;28;20129;-85
2022/08/31 10:41:16;;;;;;;6.32;3.58;;;26.10;73.20;;;;;;4984211;28;20781;-86
2022/08/31 10:44:16;;;;;;;7.63;3.15;;;26.20;72.70;;;;;;4957187;28;20031;-87
2022/08/31 10:46:43;;;;;;;3.75;3.10;;;26.30;72.10;;;;;;4969812;28;20149;-86
2022/08/31 10:49:10;;;;;;;14.07;4.00;;;26.40;72.50;;;;;;4969833;28;20140;-87
2022/08/31 10:51:47;;;;;;;3.95;3.58;;;26.40;70.90;;;;;;4971890;28;20501;-87
2022/08/31 10:54:50;;;;;;;3.92;3.33;;;26.50;70.80;;;;;;4952070;28;20038;-86
2022/08/31 10:57:33;;;;;;;5.05;2.70;;;26.60;69.50;;;;;;5000281;28;20398;-87
2022/08/31 11:00:40;;;;;;;6.00;3.30;;;26.70;70.10;;;;;;4970868;28;20030;-86
2022/08/31 11:03:36;;;;;;;4.97;2.65;;;26.90;68.30;;;;;;4979317;28;20049;-86
2022/08/31 11:06:16;;;;;;;6.25;3.53;;;26.80;67.60;;;;;;4973143;28;20042;-87
2022/08/31 11:08:57;;;;;;;7.20;2.80;;;26.90;67.00;;;;;;4985014;28;20376;-87
2022/08/31 11:11:30;;;;;;;3.85;2.63;;;26.90;68.60;;;;;;4988310;28;20391;-87
2022/08/31 11:14:14;;;;;;;8.25;3.05;;;27.20;67.50;;;;;;4971408;28;20423;-88
2022/08/31 11:17:14;;;;;;;5.40;2.70;;;27.40;66.50;;;;;;4998007;28;20034;-87
2022/08/31 11:19:47;;;;;;;4.45;2.67;;;27.60;68.50;;;;;;4986936;28;20061;-87
2022/08/31 11:22:48;;;;;;;3.95;2.88;;;28.00;66.40;;;;;;4991199;28;20092;-88
2022/08/31 11:25:51;;;;;;;9.68;2.90;;;28.10;66.00;;;;;;4927904;29;20139;-88
2022/08/31 11:28:32;;;;;;;7.18;2.90;;;28.30;65.50;;;;;;4991869;28;20033;-87
2022/08/31 11:31:01;;;;;;;4.55;2.58;;;28.30;63.40;;;;;;4972200;28;20036;-87
2022/08/31 11:33:27;;;;;;;4.00;2.78;;;28.40;64.10;;;;;;4952248;28;20543;-87
2022/08/31 11:36:09;;;;;;;6.57;2.90;;;28.50;64.60;;;;;;4957073;28;20097;-88
2022/08/31 11:38:53;;;;;;;4.68;2.42;;;28.70;63.70;;;;;;4984949;28;20457;-88
2022/08/31 11:41:47;;;;;;;7.40;2.33;;;28.80;63.30;;;;;;4955100;28;20033;-87
2022/08/31 11:44:38;;;;;;;3.75;3.00;;;28.90;63.40;;;;;;4973819;28;20168;-88
2022/08/31 11:47:15;;;;;;;7.72;2.30;;;29.10;62.40;;;;;;4970667;28;20406;-88
2022/08/31 11:49:43;;;;;;;5.82;2.50;;;29.20;61.60;;;;;;4966641;28;20481;-87
2022/08/31 11:52:41;;;;;;;3.28;2.72;;;29.20;60.50;;;;;;4952784;28;20489;-88
2022/08/31 11:55:15;;;;;;;7.05;2.80;;;29.20;61.20;;;;;;4977020;28;20381;-88
2022/08/31 11:58:06;;;;;;;4.47;2.63;;;29.20;59.90;;;;;;4968131;28;20030;-88
2022/08/31 12:00:57;;;;;;;6.95;2.85;;;29.30;60.20;;;;;;4997662;28;20026;-88
2022/08/31 12:03:42;;;;;;;4.90;3.83;;;29.30;60.60;;;;;;4982523;28;20549;-87
2022/08/31 12:06:31;;;;;;;6.40;2.95;;;29.40;59.50;;;;;;4969799;28;20038;-87
2022/08/31 12:09:11;;;;;;;2.80;2.60;;;29.40;59.80;;;;;;4980763;28;20061;-87
2022/08/31 12:11:58;;;;;;;2.72;2.38;;;29.40;59.30;;;;;;4948434;28;20578;-87
2022/08/31 12:14:29;;;;;;;4.55;3.10;;;29.40;60.20;;;;;;4964429;28;20646;-87
2022/08/31 12:17:08;;;;;;;5.68;2.50;;;29.40;59.60;;;;;;4965056;28;20030;-87
2022/08/31 12:19:59;;;;;;;3.97;3.00;;;29.40;60.90;;;;;;4985837;28;20088;-86
2022/08/31 12:25:33;;;;;;;4.05;2.63;;;29.60;59.00;;;;;;4997596;28;20040;-86
2022/08/31 12:28:15;;;;;;;5.25;2.58;;;29.50;59.60;;;;;;4968336;28;20504;-86
2022/08/31 12:30:55;;;;;;;9.82;4.63;;;29.60;59.30;;;;;;4967439;28;20042;-86
2022/08/31 12:33:25;;;;;;;5.63;2.88;;;29.60;58.50;;;;;;4968451;28;20039;-85
2022/08/31 12:36:13;;;;;;;7.55;3.50;;;29.60;57.50;;;;;;4972146;28;20088;-86
2022/08/31 12:38:39;;;;;;;3.60;2.70;;;29.60;58.30;;;;;;4978812;28;20037;-85
2022/08/31 12:41:04;;;;;;;5.32;3.00;;;29.60;58.60;;;;;;4956488;28;20433;-86
2022/08/31 12:43:40;;;;;;;3.88;2.50;;;29.60;58.70;;;;;;4978217;28;20034;-86
2022/08/31 12:46:34;;;;;;;4.80;3.17;;;29.70;58.60;;;;;;4972417;28;20632;-86
2022/08/31 12:49:06;;;;;;;7.05;2.45;;;29.70;58.20;;;;;;4978707;28;20513;-86
2022/08/31 12:51:41;;;;;;;5.63;2.83;;;29.70;58.90;;;;;;4975121;28;20401;-86
2022/08/31 12:54:34;;;;;;;3.78;2.95;;;29.80;58.00;;;;;;4993665;28;20041;-85
2022/08/31 12:57:27;;;;;;;5.97;2.17;;;29.70;57.40;;;;;;4974568;28;20045;-85
2022/08/31 13:00:05;;;;;;;5.15;2.42;;;29.70;58.40;;;;;;4980862;28;20090;-84
2022/08/31 13:02:31;;;;;;;7.18;2.53;;;29.80;58.40;;;;;;4949166;28;20079;-86
2022/08/31 13:04:56;;;;;;;5.70;2.65;;;29.90;58.30;;;;;;4983079;28;20521;-85
2022/08/31 13:07:28;;;;;;;4.88;2.60;;;29.90;57.60;;;;;;4947942;28;20458;-84
2022/08/31 13:10:14;;;;;;;3.03;2.15;;;30.00;57.50;;;;;;4980031;28;20030;-85
2022/08/31 13:12:53;;;;;;;4.38;2.30;;;30.10;57.40;;;;;;4958211;28;20038;-84
2022/08/31 13:15:25;;;;;;;2.85;2.63;;;29.90;57.10;;;;;;4986040;28;20530;-84
2022/08/31 13:17:52;;;;;;;3.40;2.65;;;29.80;57.20;;;;;;4987433;28;20120;-84
2022/08/31 13:20:18;;;;;;;3.05;2.70;;;30.00;58.10;;;;;;4980670;28;20510;-84